sensor_id;sensor_type;location;lat;lon;timestamp;temperature;humidity
46438;DHT22;32137;48.728;9.142;2023-06-22T00:01:54;22.40;9.50
46438;DHT22;32137;48.728;9.142;2023-06-22T00:06:49;22.40;37.40
46438;DHT22;32137;48.728;9.142;2023-06-22T00:09:14;22.40;36.00
46438;DHT22;32137;48.728;9.142;2023-06-22T00:11:40;22.40;50.50
46438;DHT22;32137;48.728;9.142;2023-06-22T00:14:05;22.40;60.30
46438;DHT22;32137;48.728;9.142;2023-06-22T00:16:31;22.30;45.40
46438;DHT22;32137;48.728;9.142;2023-06-22T00:18:57;22.30;62.80
46438;DHT22;32137;48.728;9.142;2023-06-22T00:21:26;22.30;72.80
46438;DHT22;32137;48.728;9.142;2023-06-22T00:23:51;22.30;81.70
46438;DHT22;32137;48.728;9.142;2023-06-22T00:26:17;22.30;73.10
46438;DHT22;32137;48.728;9.142;2023-06-22T00:28:42;22.20;81.70
46438;DHT22;32137;48.728;9.142;2023-06-22T00:31:08;22.20;98.20
46438;DHT22;32137;48.728;9.142;2023-06-22T00:33:33;22.20;99.90
46438;DHT22;32137;48.728;9.142;2023-06-22T00:35:59;22.10;99.90
46438;DHT22;32137;48.728;9.142;2023-06-22T00:38:24;22.10;99.90
46438;DHT22;32137;48.728;9.142;2023-06-22T00:40:50;22.10;99.90
46438;DHT22;32137;48.728;9.142;2023-06-22T00:43:15;22.10;99.90
46438;DHT22;32137;48.728;9.142;2023-06-22T00:45:41;22.10;99.90
46438;DHT22;32137;48.728;9.142;2023-06-22T00:48:06;22.10;99.90
46438;DHT22;32137;48.728;9.142;2023-06-22T00:50:32;22.10;99.90
46438;DHT22;32137;48.728;9.142;2023-06-22T00:53:00;22.10;99.90
46438;DHT22;32137;48.728;9.142;2023-06-22T00:55:25;22.00;99.90
46438;DHT22;32137;48.728;9.142;2023-06-22T00:57:51;22.10;99.90
46438;DHT22;32137;48.728;9.142;2023-06-22T01:00:21;22.10;99.90
46438;DHT22;32137;48.728;9.142;2023-06-22T01:02:49;22.10;99.90
46438;DHT22;32137;48.728;9.142;2023-06-22T01:05:17;22.00;99.90
46438;DHT22;32137;48.728;9.142;2023-06-22T01:07:56;22.00;99.90
46438;DHT22;32137;48.728;9.142;2023-06-22T01:10:27;22.00;99.90
46438;DHT22;32137;48.728;9.142;2023-06-22T01:12:57;22.00;99.90
46438;DHT22;32137;48.728;9.142;2023-06-22T01:15:36;21.90;99.90
46438;DHT22;32137;48.728;9.142;2023-06-22T01:18:04;21.90;99.90
46438;DHT22;32137;48.728;9.142;2023-06-22T01:20:29;21.90;99.90
46438;DHT22;32137;48.728;9.142;2023-06-22T01:25:47;21.80;99.90
46438;DHT22;32137;48.728;9.142;2023-06-22T01:28:19;21.80;99.90
46438;DHT22;32137;48.728;9.142;2023-06-22T01:30:48;21.80;99.90
46438;DHT22;32137;48.728;9.142;2023-06-22T01:33:14;21.70;99.90
46438;DHT22;32137;48.728;9.142;2023-06-22T01:35:40;21.70;99.90
46438;DHT22;32137;48.728;9.142;2023-06-22T01:38:06;21.70;99.90
46438;DHT22;32137;48.728;9.142;2023-06-22T01:40:33;21.60;99.90
46438;DHT22;32137;48.728;9.142;2023-06-22T01:43:00;21.60;99.90
46438;DHT22;32137;48.728;9.142;2023-06-22T01:45:26;21.60;99.90
46438;DHT22;32137;48.728;9.142;2023-06-22T01:47:52;21.60;99.90
46438;DHT22;32137;48.728;9.142;2023-06-22T01:50:17;21.60;99.90
46438;DHT22;32137;48.728;9.142;2023-06-22T01:52:43;21.50;99.90
46438;DHT22;32137;48.728;9.142;2023-06-22T01:55:08;21.50;99.90
46438;DHT22;32137;48.728;9.142;2023-06-22T01:57:34;21.50;99.90
46438;DHT22;32137;48.728;9.142;2023-06-22T02:00:01;21.50;99.90
46438;DHT22;32137;48.728;9.142;2023-06-22T02:02:32;21.40;99.90
46438;DHT22;32137;48.728;9.142;2023-06-22T02:04:59;21.40;99.90
46438;DHT22;32137;48.728;9.142;2023-06-22T02:07:28;21.40;99.90
46438;DHT22;32137;48.728;9.142;2023-06-22T02:09:55;21.40;99.90
46438;DHT22;32137;48.728;9.142;2023-06-22T02:12:22;21.40;99.90
46438;DHT22;32137;48.728;9.142;2023-06-22T02:14:48;21.40;99.90
46438;DHT22;32137;48.728;9.142;2023-06-22T02:17:16;21.40;99.90
46438;DHT22;32137;48.728;9.142;2023-06-22T02:19:42;21.40;99.90
46438;DHT22;32137;48.728;9.142;2023-06-22T02:22:07;21.40;99.90
46438;DHT22;32137;48.728;9.142;2023-06-22T02:24:33;21.30;99.90
46438;DHT22;32137;48.728;9.142;2023-06-22T02:26:59;21.30;99.90
46438;DHT22;32137;48.728;9.142;2023-06-22T02:29:24;21.20;99.90
46438;DHT22;32137;48.728;9.142;2023-06-22T02:31:50;21.20;99.90
46438;DHT22;32137;48.728;9.142;2023-06-22T02:34:15;21.20;99.90
46438;DHT22;32137;48.728;9.142;2023-06-22T02:36:46;21.20;99.90
46438;DHT22;32137;48.728;9.142;2023-06-22T02:39:23;21.10;99.90
46438;DHT22;32137;48.728;9.142;2023-06-22T02:41:52;21.20;99.90
46438;DHT22;32137;48.728;9.142;2023-06-22T02:44:18;21.20;99.90
46438;DHT22;32137;48.728;9.142;2023-06-22T02:46:43;21.10;99.90
46438;DHT22;32137;48.728;9.142;2023-06-22T02:49:09;21.10;99.90
46438;DHT22;32137;48.728;9.142;2023-06-22T02:51:35;21.00;99.90
46438;DHT22;32137;48.728;9.142;2023-06-22T02:54:00;21.00;99.90
46438;DHT22;32137;48.728;9.142;2023-06-22T02:56:28;21.00;99.90
46438;DHT22;32137;48.728;9.142;2023-06-22T02:58:53;21.00;99.90
46438;DHT22;32137;48.728;9.142;2023-06-22T03:01:19;21.00;99.90
46438;DHT22;32137;48.728;9.142;2023-06-22T03:03:49;21.00;99.90
46438;DHT22;32137;48.728;9.142;2023-06-22T03:06:15;21.00;99.90
46438;DHT22;32137;48.728;9.142;2023-06-22T03:08:40;20.90;99.90
46438;DHT22;32137;48.728;9.142;2023-06-22T03:11:07;20.90;99.90
46438;DHT22;32137;48.728;9.142;2023-06-22T03:13:33;20.90;99.90
46438;DHT22;32137;48.728;9.142;2023-06-22T03:15:58;20.90;99.90
46438;DHT22;32137;48.728;9.142;2023-06-22T03:18:24;20.80;99.90
46438;DHT22;32137;48.728;9.142;2023-06-22T03:20:49;20.80;99.90
46438;DHT22;32137;48.728;9.142;2023-06-22T03:23:15;20.80;99.90
46438;DHT22;32137;48.728;9.142;2023-06-22T03:25:40;20.80;99.90
46438;DHT22;32137;48.728;9.142;2023-06-22T03:28:06;20.80;99.90
46438;DHT22;32137;48.728;9.142;2023-06-22T03:30:32;20.70;99.90
46438;DHT22;32137;48.728;9.142;2023-06-22T03:32:57;20.70;99.90
46438;DHT22;32137;48.728;9.142;2023-06-22T03:35:23;20.70;1.00
46438;DHT22;32137;48.728;9.142;2023-06-22T03:37:48;20.60;99.90
46438;DHT22;32137;48.728;9.142;2023-06-22T03:40:14;20.60;99.90
46438;DHT22;32137;48.728;9.142;2023-06-22T03:42:39;20.60;1.00
46438;DHT22;32137;48.728;9.142;2023-06-22T03:45:05;20.60;99.90
46438;DHT22;32137;48.728;9.142;2023-06-22T03:47:30;20.70;99.90
46438;DHT22;32137;48.728;9.142;2023-06-22T03:49:56;20.60;99.90
46438;DHT22;32137;48.728;9.142;2023-06-22T03:52:22;20.60;1.00
46438;DHT22;32137;48.728;9.142;2023-06-22T03:54:47;20.60;1.00
46438;DHT22;32137;48.728;9.142;2023-06-22T03:57:13;20.60;1.00
46438;DHT22;32137;48.728;9.142;2023-06-22T03:59:38;20.60;1.00
46438;DHT22;32137;48.728;9.142;2023-06-22T04:02:04;20.60;1.00
46438;DHT22;32137;48.728;9.142;2023-06-22T04:04:29;20.50;1.00
46438;DHT22;32137;48.728;9.142;2023-06-22T04:06:55;20.60;1.00
46438;DHT22;32137;48.728;9.142;2023-06-22T04:09:20;20.50;1.00
46438;DHT22;32137;48.728;9.142;2023-06-22T04:11:47;20.50;1.00
46438;DHT22;32137;48.728;9.142;2023-06-22T04:14:12;20.50;1.00
46438;DHT22;32137;48.728;9.142;2023-06-22T04:16:38;20.50;1.00
46438;DHT22;32137;48.728;9.142;2023-06-22T04:19:03;20.60;1.00
46438;DHT22;32137;48.728;9.142;2023-06-22T04:21:29;20.60;1.00
46438;DHT22;32137;48.728;9.142;2023-06-22T04:23:54;20.60;1.00
46438;DHT22;32137;48.728;9.142;2023-06-22T04:26:20;20.60;1.00
46438;DHT22;32137;48.728;9.142;2023-06-22T04:28:46;20.60;1.00
46438;DHT22;32137;48.728;9.142;2023-06-22T04:31:17;20.60;1.00
46438;DHT22;32137;48.728;9.142;2023-06-22T04:33:43;20.60;1.00
46438;DHT22;32137;48.728;9.142;2023-06-22T04:36:09;20.60;1.00
46438;DHT22;32137;48.728;9.142;2023-06-22T04:38:38;20.70;1.00
46438;DHT22;32137;48.728;9.142;2023-06-22T04:41:04;20.70;1.00
46438;DHT22;32137;48.728;9.142;2023-06-22T04:43:29;20.70;1.00
46438;DHT22;32137;48.728;9.142;2023-06-22T04:45:56;20.70;1.00
46438;DHT22;32137;48.728;9.142;2023-06-22T04:48:21;20.70;1.00
46438;DHT22;32137;48.728;9.142;2023-06-22T04:50:47;20.70;1.00
46438;DHT22;32137;48.728;9.142;2023-06-22T04:53:12;20.70;1.00
46438;DHT22;32137;48.728;9.142;2023-06-22T04:55:38;20.70;1.00
46438;DHT22;32137;48.728;9.142;2023-06-22T04:58:07;20.70;1.00
46438;DHT22;32137;48.728;9.142;2023-06-22T05:00:33;20.70;1.00
46438;DHT22;32137;48.728;9.142;2023-06-22T05:03:01;20.70;1.00
46438;DHT22;32137;48.728;9.142;2023-06-22T05:05:28;20.70;1.00
46438;DHT22;32137;48.728;9.142;2023-06-22T05:07:55;20.70;1.00
46438;DHT22;32137;48.728;9.142;2023-06-22T05:10:25;20.70;1.00
46438;DHT22;32137;48.728;9.142;2023-06-22T05:12:50;20.80;1.00
46438;DHT22;32137;48.728;9.142;2023-06-22T05:15:16;20.80;1.00
46438;DHT22;32137;48.728;9.142;2023-06-22T05:17:41;20.80;1.00
46438;DHT22;32137;48.728;9.142;2023-06-22T05:20:10;20.90;1.00
46438;DHT22;32137;48.728;9.142;2023-06-22T05:22:36;21.00;99.90
46438;DHT22;32137;48.728;9.142;2023-06-22T05:25:02;21.00;99.90
46438;DHT22;32137;48.728;9.142;2023-06-22T05:27:27;21.00;99.90
46438;DHT22;32137;48.728;9.142;2023-06-22T05:29:52;21.00;99.90
46438;DHT22;32137;48.728;9.142;2023-06-22T05:32:18;21.10;99.90
46438;DHT22;32137;48.728;9.142;2023-06-22T05:34:44;21.10;99.90
46438;DHT22;32137;48.728;9.142;2023-06-22T05:37:09;21.10;99.90
46438;DHT22;32137;48.728;9.142;2023-06-22T05:39:35;21.20;99.90
46438;DHT22;32137;48.728;9.142;2023-06-22T05:42:04;21.20;99.90
46438;DHT22;32137;48.728;9.142;2023-06-22T05:44:29;21.20;99.90
46438;DHT22;32137;48.728;9.142;2023-06-22T05:46:55;21.20;99.90
46438;DHT22;32137;48.728;9.142;2023-06-22T05:49:20;21.30;99.90
46438;DHT22;32137;48.728;9.142;2023-06-22T05:51:47;21.30;99.90
46438;DHT22;32137;48.728;9.142;2023-06-22T05:54:13;21.30;99.90
46438;DHT22;32137;48.728;9.142;2023-06-22T05:56:40;21.30;99.90
46438;DHT22;32137;48.728;9.142;2023-06-22T05:59:06;21.30;99.90
46438;DHT22;32137;48.728;9.142;2023-06-22T06:01:31;21.30;99.90
46438;DHT22;32137;48.728;9.142;2023-06-22T06:04:00;21.40;99.90
46438;DHT22;32137;48.728;9.142;2023-06-22T06:06:25;21.40;99.90
46438;DHT22;32137;48.728;9.142;2023-06-22T06:08:54;21.40;99.90
46438;DHT22;32137;48.728;9.142;2023-06-22T06:11:19;21.40;99.90
46438;DHT22;32137;48.728;9.142;2023-06-22T06:13:45;21.40;99.90
46438;DHT22;32137;48.728;9.142;2023-06-22T06:16:11;21.50;99.90
46438;DHT22;32137;48.728;9.142;2023-06-22T06:18:37;21.50;99.90
46438;DHT22;32137;48.728;9.142;2023-06-22T06:21:02;21.50;99.90
46438;DHT22;32137;48.728;9.142;2023-06-22T06:23:28;21.50;99.90
46438;DHT22;32137;48.728;9.142;2023-06-22T06:25:53;21.50;99.90
46438;DHT22;32137;48.728;9.142;2023-06-22T06:28:21;21.50;99.90
46438;DHT22;32137;48.728;9.142;2023-06-22T06:30:47;21.60;99.90
46438;DHT22;32137;48.728;9.142;2023-06-22T06:33:12;21.60;99.90
46438;DHT22;32137;48.728;9.142;2023-06-22T06:35:38;21.70;99.90
46438;DHT22;32137;48.728;9.142;2023-06-22T06:38:03;21.70;99.90
46438;DHT22;32137;48.728;9.142;2023-06-22T06:40:29;21.80;99.90
46438;DHT22;32137;48.728;9.142;2023-06-22T06:42:54;21.80;99.90
46438;DHT22;32137;48.728;9.142;2023-06-22T06:45:21;21.80;99.90
46438;DHT22;32137;48.728;9.142;2023-06-22T06:47:51;21.90;99.90
46438;DHT22;32137;48.728;9.142;2023-06-22T06:50:16;21.90;99.90
46438;DHT22;32137;48.728;9.142;2023-06-22T06:52:42;22.00;99.90
46438;DHT22;32137;48.728;9.142;2023-06-22T06:55:08;22.10;99.90
46438;DHT22;32137;48.728;9.142;2023-06-22T06:57:37;22.10;99.90
46438;DHT22;32137;48.728;9.142;2023-06-22T07:00:03;22.20;87.70
46438;DHT22;32137;48.728;9.142;2023-06-22T07:02:34;22.20;99.90
46438;DHT22;32137;48.728;9.142;2023-06-22T07:05:00;22.20;99.90
46438;DHT22;32137;48.728;9.142;2023-06-22T07:07:25;22.20;99.90
46438;DHT22;32137;48.728;9.142;2023-06-22T07:09:51;22.30;99.90
46438;DHT22;32137;48.728;9.142;2023-06-22T07:12:16;22.30;99.90
46438;DHT22;32137;48.728;9.142;2023-06-22T07:14:41;22.30;89.40
46438;DHT22;32137;48.728;9.142;2023-06-22T07:17:07;22.40;51.90
46438;DHT22;32137;48.728;9.142;2023-06-22T07:19:32;22.40;77.60
46438;DHT22;32137;48.728;9.142;2023-06-22T07:21:58;22.40;28.40
46438;DHT22;32137;48.728;9.142;2023-06-22T07:24:24;22.40;8.30
46438;DHT22;32137;48.728;9.142;2023-06-22T07:26:49;22.50;1.00
46438;DHT22;32137;48.728;9.142;2023-06-22T07:29:19;22.50;15.30
46438;DHT22;32137;48.728;9.142;2023-06-22T07:31:46;22.60;25.50
46438;DHT22;32137;48.728;9.142;2023-06-22T07:34:12;22.60;1.00
46438;DHT22;32137;48.728;9.142;2023-06-22T07:36:37;22.60;1.00
46438;DHT22;32137;48.728;9.142;2023-06-22T07:39:03;22.60;17.30
46438;DHT22;32137;48.728;9.142;2023-06-22T07:41:29;22.60;1.00
46438;DHT22;32137;48.728;9.142;2023-06-22T07:43:55;22.60;1.00
46438;DHT22;32137;48.728;9.142;2023-06-22T07:46:20;22.60;6.70
46438;DHT22;32137;48.728;9.142;2023-06-22T07:48:46;22.70;1.00
46438;DHT22;32137;48.728;9.142;2023-06-22T07:51:11;22.70;1.00
46438;DHT22;32137;48.728;9.142;2023-06-22T07:53:40;22.90;1.00
46438;DHT22;32137;48.728;9.142;2023-06-22T07:56:06;22.90;1.00
46438;DHT22;32137;48.728;9.142;2023-06-22T07:58:32;22.90;1.00
46438;DHT22;32137;48.728;9.142;2023-06-22T08:00:58;22.90;1.00
46438;DHT22;32137;48.728;9.142;2023-06-22T08:03:24;22.90;1.00
46438;DHT22;32137;48.728;9.142;2023-06-22T08:05:49;23.00;1.00
46438;DHT22;32137;48.728;9.142;2023-06-22T08:08:15;23.10;1.00
46438;DHT22;32137;48.728;9.142;2023-06-22T08:10:41;23.20;1.00
46438;DHT22;32137;48.728;9.142;2023-06-22T08:13:07;23.20;1.00
46438;DHT22;32137;48.728;9.142;2023-06-22T08:15:33;23.30;1.00
46438;DHT22;32137;48.728;9.142;2023-06-22T08:17:58;23.40;1.00
46438;DHT22;32137;48.728;9.142;2023-06-22T08:20:25;23.60;1.00
46438;DHT22;32137;48.728;9.142;2023-06-22T08:22:50;23.70;1.00
46438;DHT22;32137;48.728;9.142;2023-06-22T08:25:16;23.90;1.00
46438;DHT22;32137;48.728;9.142;2023-06-22T08:27:44;24.00;1.00
46438;DHT22;32137;48.728;9.142;2023-06-22T08:30:10;24.10;1.00
46438;DHT22;32137;48.728;9.142;2023-06-22T08:32:36;24.20;99.90
46438;DHT22;32137;48.728;9.142;2023-06-22T08:35:01;24.20;99.90
46438;DHT22;32137;48.728;9.142;2023-06-22T08:37:27;24.30;99.90
46438;DHT22;32137;48.728;9.142;2023-06-22T08:39:56;24.40;99.90
46438;DHT22;32137;48.728;9.142;2023-06-22T08:42:22;24.40;99.90
46438;DHT22;32137;48.728;9.142;2023-06-22T08:44:49;24.40;99.90
46438;DHT22;32137;48.728;9.142;2023-06-22T08:47:15;24.40;99.90
46438;DHT22;32137;48.728;9.142;2023-06-22T08:49:40;24.50;99.90
46438;DHT22;32137;48.728;9.142;2023-06-22T08:52:06;24.60;99.90
46438;DHT22;32137;48.728;9.142;2023-06-22T08:54:33;24.70;99.90
46438;DHT22;32137;48.728;9.142;2023-06-22T08:57:00;24.90;99.90
46438;DHT22;32137;48.728;9.142;2023-06-22T08:59:25;24.90;99.90
46438;DHT22;32137;48.728;9.142;2023-06-22T09:01:51;24.90;99.90
46438;DHT22;32137;48.728;9.142;2023-06-22T09:04:16;25.00;99.90
46438;DHT22;32137;48.728;9.142;2023-06-22T09:06:42;25.00;99.90
46438;DHT22;32137;48.728;9.142;2023-06-22T09:09:15;25.00;99.90
46438;DHT22;32137;48.728;9.142;2023-06-22T09:11:40;25.00;99.90
46438;DHT22;32137;48.728;9.142;2023-06-22T09:14:06;25.00;99.90
46438;DHT22;32137;48.728;9.142;2023-06-22T09:16:31;25.00;99.90
46438;DHT22;32137;48.728;9.142;2023-06-22T09:18:57;25.00;99.90
46438;DHT22;32137;48.728;9.142;2023-06-22T09:21:23;25.00;99.90
46438;DHT22;32137;48.728;9.142;2023-06-22T09:23:48;25.00;99.90
46438;DHT22;32137;48.728;9.142;2023-06-22T09:26:20;25.00;99.90
46438;DHT22;32137;48.728;9.142;2023-06-22T09:28:45;25.00;99.90
46438;DHT22;32137;48.728;9.142;2023-06-22T09:31:11;25.00;99.90
46438;DHT22;32137;48.728;9.142;2023-06-22T09:33:37;25.00;99.90
46438;DHT22;32137;48.728;9.142;2023-06-22T09:36:05;24.90;99.90
46438;DHT22;32137;48.728;9.142;2023-06-22T09:38:38;25.00;99.90
46438;DHT22;32137;48.728;9.142;2023-06-22T09:41:04;25.10;99.90
46438;DHT22;32137;48.728;9.142;2023-06-22T09:43:31;25.10;99.90
46438;DHT22;32137;48.728;9.142;2023-06-22T09:45:56;25.20;99.90
46438;DHT22;32137;48.728;9.142;2023-06-22T09:48:22;25.20;99.90
46438;DHT22;32137;48.728;9.142;2023-06-22T09:50:47;25.30;99.90
46438;DHT22;32137;48.728;9.142;2023-06-22T09:53:13;25.40;99.90
46438;DHT22;32137;48.728;9.142;2023-06-22T09:55:38;25.50;99.90
46438;DHT22;32137;48.728;9.142;2023-06-22T09:58:04;25.60;99.90
46438;DHT22;32137;48.728;9.142;2023-06-22T10:00:29;25.80;99.90
46438;DHT22;32137;48.728;9.142;2023-06-22T10:02:55;26.00;99.90
46438;DHT22;32137;48.728;9.142;2023-06-22T10:05:23;26.20;99.90
46438;DHT22;32137;48.728;9.142;2023-06-22T10:07:51;26.40;99.90
46438;DHT22;32137;48.728;9.142;2023-06-22T10:10:16;26.60;99.90
46438;DHT22;32137;48.728;9.142;2023-06-22T10:12:44;26.60;99.90
46438;DHT22;32137;48.728;9.142;2023-06-22T10:15:10;26.70;99.90
46438;DHT22;32137;48.728;9.142;2023-06-22T10:17:36;26.80;99.90
46438;DHT22;32137;48.728;9.142;2023-06-22T10:20:01;26.90;99.90
46438;DHT22;32137;48.728;9.142;2023-06-22T10:22:31;26.90;99.90
46438;DHT22;32137;48.728;9.142;2023-06-22T10:24:57;27.10;99.90
46438;DHT22;32137;48.728;9.142;2023-06-22T10:27:22;27.20;99.90
46438;DHT22;32137;48.728;9.142;2023-06-22T10:29:48;27.30;99.90
46438;DHT22;32137;48.728;9.142;2023-06-22T10:32:13;27.40;99.90
46438;DHT22;32137;48.728;9.142;2023-06-22T10:34:39;27.40;99.90
46438;DHT22;32137;48.728;9.142;2023-06-22T10:37:04;27.50;99.90
46438;DHT22;32137;48.728;9.142;2023-06-22T10:39:30;27.50;99.90
46438;DHT22;32137;48.728;9.142;2023-06-22T10:41:55;27.60;99.90
46438;DHT22;32137;48.728;9.142;2023-06-22T10:44:21;27.80;53.80
46438;DHT22;32137;48.728;9.142;2023-06-22T10:46:46;27.90;90.60
46438;DHT22;32137;48.728;9.142;2023-06-22T10:49:12;28.10;23.40
46438;DHT22;32137;48.728;9.142;2023-06-22T10:51:37;28.20;1.00
46438;DHT22;32137;48.728;9.142;2023-06-22T10:54:03;28.20;42.90
46438;DHT22;32137;48.728;9.142;2023-06-22T10:56:29;28.30;8.00
46438;DHT22;32137;48.728;9.142;2023-06-22T10:58:55;28.30;31.50
46438;DHT22;32137;48.728;9.142;2023-06-22T11:01:20;28.30;14.20
46438;DHT22;32137;48.728;9.142;2023-06-22T11:03:46;28.40;1.00
46438;DHT22;32137;48.728;9.142;2023-06-22T11:06:11;28.40;1.00
46438;DHT22;32137;48.728;9.142;2023-06-22T11:08:37;28.50;1.00
46438;DHT22;32137;48.728;9.142;2023-06-22T11:11:02;28.50;1.00
46438;DHT22;32137;48.728;9.142;2023-06-22T11:13:27;28.50;12.40
46438;DHT22;32137;48.728;9.142;2023-06-22T11:15:53;28.40;1.00
46438;DHT22;32137;48.728;9.142;2023-06-22T11:18:19;28.40;1.00
46438;DHT22;32137;48.728;9.142;2023-06-22T11:20:44;28.30;1.00
46438;DHT22;32137;48.728;9.142;2023-06-22T11:23:09;28.20;1.00
46438;DHT22;32137;48.728;9.142;2023-06-22T11:25:37;28.20;1.00
46438;DHT22;32137;48.728;9.142;2023-06-22T11:28:03;28.30;1.00
46438;DHT22;32137;48.728;9.142;2023-06-22T11:30:29;28.40;1.00
46438;DHT22;32137;48.728;9.142;2023-06-22T11:32:56;28.50;1.00
46438;DHT22;32137;48.728;9.142;2023-06-22T11:35:21;28.60;1.00
46438;DHT22;32137;48.728;9.142;2023-06-22T11:37:47;28.80;1.00
46438;DHT22;32137;48.728;9.142;2023-06-22T11:40:12;29.10;1.00
46438;DHT22;32137;48.728;9.142;2023-06-22T11:42:38;29.40;1.00
46438;DHT22;32137;48.728;9.142;2023-06-22T11:45:04;29.70;1.00
46438;DHT22;32137;48.728;9.142;2023-06-22T11:47:30;30.30;99.90
46438;DHT22;32137;48.728;9.142;2023-06-22T11:49:55;30.60;99.90
46438;DHT22;32137;48.728;9.142;2023-06-22T11:52:21;30.60;99.90
46438;DHT22;32137;48.728;9.142;2023-06-22T11:54:46;30.40;99.90
46438;DHT22;32137;48.728;9.142;2023-06-22T11:57:12;30.20;99.90
46438;DHT22;32137;48.728;9.142;2023-06-22T11:59:37;30.10;99.90
46438;DHT22;32137;48.728;9.142;2023-06-22T12:02:03;30.10;99.90
46438;DHT22;32137;48.728;9.142;2023-06-22T12:04:30;30.10;99.90
46438;DHT22;32137;48.728;9.142;2023-06-22T12:06:56;30.20;99.90
46438;DHT22;32137;48.728;9.142;2023-06-22T12:09:21;30.10;99.90
46438;DHT22;32137;48.728;9.142;2023-06-22T12:11:47;29.90;1.00
46438;DHT22;32137;48.728;9.142;2023-06-22T12:14:12;29.70;1.00
46438;DHT22;32137;48.728;9.142;2023-06-22T12:16:38;29.50;1.00
46438;DHT22;32137;48.728;9.142;2023-06-22T12:19:03;29.50;99.90
46438;DHT22;32137;48.728;9.142;2023-06-22T12:21:29;29.40;99.90
46438;DHT22;32137;48.728;9.142;2023-06-22T12:23:54;29.50;99.90
46438;DHT22;32137;48.728;9.142;2023-06-22T12:26:20;29.40;99.90
46438;DHT22;32137;48.728;9.142;2023-06-22T12:28:47;29.30;99.90
46438;DHT22;32137;48.728;9.142;2023-06-22T12:31:14;29.20;99.90
46438;DHT22;32137;48.728;9.142;2023-06-22T12:33:39;29.00;99.90
46438;DHT22;32137;48.728;9.142;2023-06-22T12:36:05;28.90;1.00
46438;DHT22;32137;48.728;9.142;2023-06-22T12:38:30;28.80;99.90
46438;DHT22;32137;48.728;9.142;2023-06-22T12:40:56;28.70;1.00
46438;DHT22;32137;48.728;9.142;2023-06-22T12:43:21;28.60;99.90
46438;DHT22;32137;48.728;9.142;2023-06-22T12:45:47;28.60;1.00
46438;DHT22;32137;48.728;9.142;2023-06-22T12:48:12;28.50;1.00
46438;DHT22;32137;48.728;9.142;2023-06-22T12:50:38;28.50;1.00
46438;DHT22;32137;48.728;9.142;2023-06-22T12:53:03;28.40;1.00
46438;DHT22;32137;48.728;9.142;2023-06-22T12:55:29;28.50;1.00
46438;DHT22;32137;48.728;9.142;2023-06-22T12:57:55;28.40;1.00
46438;DHT22;32137;48.728;9.142;2023-06-22T13:00:20;28.40;1.00
46438;DHT22;32137;48.728;9.142;2023-06-22T13:02:46;28.40;1.00
46438;DHT22;32137;48.728;9.142;2023-06-22T13:05:11;28.40;1.00
46438;DHT22;32137;48.728;9.142;2023-06-22T13:07:37;28.40;1.00
46438;DHT22;32137;48.728;9.142;2023-06-22T13:10:03;28.40;1.00
46438;DHT22;32137;48.728;9.142;2023-06-22T13:12:28;28.40;1.00
46438;DHT22;32137;48.728;9.142;2023-06-22T13:14:54;28.40;1.00
46438;DHT22;32137;48.728;9.142;2023-06-22T13:17:20;28.40;1.00
46438;DHT22;32137;48.728;9.142;2023-06-22T13:19:45;28.50;1.00
46438;DHT22;32137;48.728;9.142;2023-06-22T13:24:55;28.80;1.00
46438;DHT22;32137;48.728;9.142;2023-06-22T13:27:21;28.80;99.90
46438;DHT22;32137;48.728;9.142;2023-06-22T13:29:46;28.90;99.90
46438;DHT22;32137;48.728;9.142;2023-06-22T13:32:12;28.90;99.90
46438;DHT22;32137;48.728;9.142;2023-06-22T13:34:37;28.90;99.90
46438;DHT22;32137;48.728;9.142;2023-06-22T13:37:03;28.90;99.90
46438;DHT22;32137;48.728;9.142;2023-06-22T13:39:28;29.00;99.90
46438;DHT22;32137;48.728;9.142;2023-06-22T13:41:54;29.00;99.90
46438;DHT22;32137;48.728;9.142;2023-06-22T13:44:19;29.00;99.90
46438;DHT22;32137;48.728;9.142;2023-06-22T13:46:46;29.00;99.90
46438;DHT22;32137;48.728;9.142;2023-06-22T13:49:12;29.00;99.90
46438;DHT22;32137;48.728;9.142;2023-06-22T13:51:37;29.00;99.90
46438;DHT22;32137;48.728;9.142;2023-06-22T13:54:03;29.00;99.90
46438;DHT22;32137;48.728;9.142;2023-06-22T13:56:28;29.00;99.90
46438;DHT22;32137;48.728;9.142;2023-06-22T13:58:54;29.00;99.90
46438;DHT22;32137;48.728;9.142;2023-06-22T14:01:19;29.10;99.90
46438;DHT22;32137;48.728;9.142;2023-06-22T14:03:44;29.40;99.90
46438;DHT22;32137;48.728;9.142;2023-06-22T14:06:12;29.80;99.90
46438;DHT22;32137;48.728;9.142;2023-06-22T14:08:37;30.00;99.90
46438;DHT22;32137;48.728;9.142;2023-06-22T14:11:03;30.50;99.90
46438;DHT22;32137;48.728;9.142;2023-06-22T14:13:28;30.90;96.60
46438;DHT22;32137;48.728;9.142;2023-06-22T14:15:54;31.30;23.60
46438;DHT22;32137;48.728;9.142;2023-06-22T14:18:19;31.60;38.60
46438;DHT22;32137;48.728;9.142;2023-06-22T14:20:48;31.90;7.00
46438;DHT22;32137;48.728;9.142;2023-06-22T14:23:13;32.10;1.00
46438;DHT22;32137;48.728;9.142;2023-06-22T14:25:39;32.00;1.00
46438;DHT22;32137;48.728;9.142;2023-06-22T14:28:04;31.80;1.00
46438;DHT22;32137;48.728;9.142;2023-06-22T14:30:30;31.60;1.00
46438;DHT22;32137;48.728;9.142;2023-06-22T14:32:55;31.50;1.00
46438;DHT22;32137;48.728;9.142;2023-06-22T14:35:21;31.40;1.00
46438;DHT22;32137;48.728;9.142;2023-06-22T14:37:46;31.60;1.00
46438;DHT22;32137;48.728;9.142;2023-06-22T14:40:12;31.80;99.90
46438;DHT22;32137;48.728;9.142;2023-06-22T14:42:37;32.10;99.90
46438;DHT22;32137;48.728;9.142;2023-06-22T14:45:03;32.20;99.90
46438;DHT22;32137;48.728;9.142;2023-06-22T14:47:29;32.30;99.90
46438;DHT22;32137;48.728;9.142;2023-06-22T14:49:54;32.30;99.90
46438;DHT22;32137;48.728;9.142;2023-06-22T14:52:20;32.30;99.90
46438;DHT22;32137;48.728;9.142;2023-06-22T14:54:45;32.30;99.90
46438;DHT22;32137;48.728;9.142;2023-06-22T14:57:11;32.20;99.90
46438;DHT22;32137;48.728;9.142;2023-06-22T14:59:36;32.20;99.90
46438;DHT22;32137;48.728;9.142;2023-06-22T15:02:02;32.10;99.90
46438;DHT22;32137;48.728;9.142;2023-06-22T15:04:28;32.00;99.90
46438;DHT22;32137;48.728;9.142;2023-06-22T15:06:57;31.80;99.90
46438;DHT22;32137;48.728;9.142;2023-06-22T15:09:22;31.70;99.90
46438;DHT22;32137;48.728;9.142;2023-06-22T15:11:48;31.70;99.90
46438;DHT22;32137;48.728;9.142;2023-06-22T15:14:13;31.70;99.90
46438;DHT22;32137;48.728;9.142;2023-06-22T15:16:39;31.70;99.90
46438;DHT22;32137;48.728;9.142;2023-06-22T15:19:04;31.60;99.90
46438;DHT22;32137;48.728;9.142;2023-06-22T15:21:30;31.70;99.90
46438;DHT22;32137;48.728;9.142;2023-06-22T15:23:55;31.90;99.90
46438;DHT22;32137;48.728;9.142;2023-06-22T15:26:21;32.00;99.90
46438;DHT22;32137;48.728;9.142;2023-06-22T15:28:46;31.90;99.90
46438;DHT22;32137;48.728;9.142;2023-06-22T15:31:12;31.80;99.90
46438;DHT22;32137;48.728;9.142;2023-06-22T15:33:37;31.80;99.90
46438;DHT22;32137;48.728;9.142;2023-06-22T15:36:03;31.60;99.90